^^

Metar de toute la France(point de départ, Chateauroux, classé dans l'ordre alphabétique actualisée toutes les 30 minutes)






LFBA - Agen/, France
Distance de la station: SSO 307km
Mise à jour: 01/11/2014 05:00
partiellement nuageux
partiellement nuageux
 Wind from ESE
Vent: ESE 7 km/h
Température: 10°C
Wind Chill: 9°C
Point de Rosée: 10°C
Humidité: 100%
Baromètre: 1021 hPa
Nuages: partiellement nuageux
Visibilité: 8 km
2014/11/01 04:00 LFBA 010400Z AUTO 11004KT 8000 NSC 10/10 Q1021
LFLP - Annecy/, France
Distance de la station: ESE 352km
Mise à jour: 01/11/2014 05:00
partiellement nuageux
partiellement nuageux
 Wind from ENE
Vent: ENE 7 km/h
Température: 6°C
Wind Chill: 4°C
Point de Rosée: 5°C
Humidité: 93%
Baromètre: 1024 hPa
Nuages: partiellement nuageux
Visibilité: 10 km
2014/11/01 04:00 LFLP 010400Z AUTO 06004KT 030V090 9999 NSC 06/05 Q1024
 
LFOA - Avord/ , France
Distance de la station: ENE 76km
Mise à jour: 01/11/2014 05:00
partiellement nuageux
partiellement nuageux
 Wind from E
Vent: E 7 km/h
Température: 11°C
Point de Rosée: 10°C
Humidité: 94%
Baromètre: 1020 hPa
Nuages: partiellement nuageux
Visibilité: 8 km
2014/11/01 04:00 LFOA 010400Z AUTO 10004KT 8000 NSC 11/10 Q1020
LFSB - Bale/, France
Distance de la station: ENE 449km
Mise à jour: 01/11/2014 05:00
partiellement nuageux
partiellement nuageux
 Wind from calm
Vent: Vent calme
Température: 5°C
Point de Rosée: 5°C
Humidité: 100%
Baromètre: 1023 hPa
Nuages: partiellement nuageux
Visibilité: 6 km
2014/11/01 04:00 LFSB 010400Z 00000KT 6000 NSC 05/05 Q1023 NOSIG
 
LFOB - Beauvais/, France
Distance de la station: N 296km
Mise à jour: 01/11/2014 05:00
partiellement nuageux
partiellement nuageux
 Wind from ESE
Vent: ESE 7 km/h
Température: 9°C
Wind Chill: 8°C
Point de Rosée: 9°C
Humidité: 100%
Baromètre: 1018 hPa
Nuages: partiellement nuageux
Visibilité: 9 km
2014/11/01 04:00 LFOB 010400Z AUTO 12004KT 9000 NSC 09/09 Q1018
LFBE - Bergerac/, France
Distance de la station: SSO 240km
Mise à jour: 01/11/2014 05:00
Broulliard, partiellement nuageux
Broulliard, partiellement nuageux
 Wind from ENE
Vent: ENE 9 km/h
Température: 8°C
Wind Chill: 6°C
Point de Rosée: 8°C
Humidité: 100%
Baromètre: 1020 hPa
Récapitulatifs: Broulliard
Nuages: partiellement nuageux
Visibilité: 5 km
2014/11/01 04:00 LFBE 010400Z AUTO 07005KT 5000 BR NSC 08/08 Q1020
 
LFMU - Beziers/, France
Distance de la station: SSE 411km
Mise à jour: 01/11/2014 05:00
Couvert
Couvert
 Wind from N
Vent: N 15 km/h
Température: 13°C
Point de Rosée: 11°C
Humidité: 88%
Baromètre: 1023 hPa
Nuages: Couvert
Visibilité: 10 km
Nuages details: Couvert 1067 m
2014/11/01 04:00 LFMU 010400Z AUTO 01008KT 9999 OVC035 13/11 Q1023
LFBZ - Biarritz/, France
Distance de la station: SO 449km
Mise à jour: 01/11/2014 05:00
partiellement nuageux
partiellement nuageux
 Wind from S
Vent: S 7 km/h
Température: 20°C
Point de Rosée: 10°C
Humidité: 53%
Baromètre: 1019 hPa
Nuages: partiellement nuageux
Visibilité: 10 km
2014/11/01 04:00 LFBZ 010400Z AUTO 19004KT 110V250 9999 NSC 20/10 Q1019
 
LFBD - Bordeaux/, France
Distance de la station: SO 289km
Mise à jour: 01/11/2014 05:00
partiellement nuageux
partiellement nuageux
 Wind from ESE
Vent: ESE 9 km/h
Température: 13°C
Point de Rosée: 12°C
Humidité: 94%
Baromètre: 1019 hPa
Nuages: partiellement nuageux
Visibilité: 10 km
2014/11/01 04:00 LFBD 010400Z AUTO 12005KT 9999 NSC 13/12 Q1019
LFAQ - Bray/, France
Distance de la station: N 358km
Mise à jour: 01/11/2014 05:00
partiellement nuageux
partiellement nuageux
 Wind from SSE
Vent: SSE 15 km/h
Température: 11°C
Point de Rosée: 10°C
Humidité: 94%
Baromètre: 1018 hPa
Nuages: partiellement nuageux
Visibilité: 10 km
2014/11/01 04:00 LFAQ 010400Z AUTO 15008KT 9999 NSC 11/10 Q1018
 
LFRB - Brest/, France
Distance de la station: ONO 492km
Mise à jour: 01/11/2014 05:00
partiellement nuageux
partiellement nuageux
 Wind from SO
Vent: SO 9 km/h
Température: 13°C
Point de Rosée: 12°C
Humidité: 94%
Baromètre: 1017 hPa
Nuages: partiellement nuageux
Visibilité: 10 km
Nuages details: Quelques Nuages 305 m
partiellement nuageux 2743 m
2014/11/01 04:00 LFRB 010400Z 22005KT 9999 FEW010 SCT090 13/12 Q1017 NOSIG
LFRK - Caen/, France
Distance de la station: NNO 306km
Mise à jour: 01/11/2014 05:00
partiellement nuageux
partiellement nuageux
 Wind from SSO
Vent: SSO 15 km/h
Température: 12°C
Point de Rosée: 10°C
Humidité: 88%
Baromètre: 1017 hPa
Nuages: partiellement nuageux
Visibilité: 10 km
2014/11/01 04:00 LFRK 010400Z AUTO 20008KT 9999 NSC 12/10 Q1017
 
LFMK - Carcassonne/, France
Distance de la station: S 403km
Mise à jour: 01/11/2014 05:00
Couvert
Couvert
 Wind from E
Vent: E 15 km/h
Température: 14°C
Point de Rosée: 13°C
Humidité: 94%
Baromètre: 1022 hPa
Nuages: Couvert
Visibilité: 8 km
Nuages details: Couvert 671 m
2014/11/01 04:00 LFMK 010400Z AUTO 10008KT 8000 OVC022 14/13 Q1022
LFMV - Caumont/, France
Distance de la station: SE 410km
Mise à jour: 01/11/2014 05:00
Brouillard ou brume, Few clouds
Brouillard ou brume, Few clouds
 Wind from N
Vent: N 4 km/h
Température: 6°C
Point de Rosée: 5°C
Humidité: 93%
Baromètre: 1024 hPa
Récapitulatifs: Brouillard ou brume
Nuages: Quelques Nuages
Visibilité: 0 km
Nuages details: Quelques Nuages 518 m
2014/11/01 04:00 LFMV 010400Z AUTO 35002KT 0200 R17/0600D FG FEW017 06/05 Q1024
 
LFBC - Cazaux/, France
Distance de la station: SO 336km
Mise à jour: 01/11/2014 05:00
partiellement nuageux
partiellement nuageux
 Wind from SE
Vent: SE 7 km/h
Température: 11°C
Point de Rosée: 11°C
Humidité: 100%
Baromètre: 1019 hPa
Nuages: partiellement nuageux
Visibilité: 7 km
2014/11/01 04:00 LFBC 010400Z AUTO 14004KT 7000 NSC 11/11 Q1019
LFPC - Creil/, France
Distance de la station: NNE 278km
Mise à jour: 01/11/2014 05:00
partiellement nuageux
partiellement nuageux
 Wind from variable
Vent: variable 4 km/h
Température: 12°C
Point de Rosée: 10°C
Humidité: 88%
Baromètre: 1019 hPa
Nuages: partiellement nuageux
Visibilité: 10 km
2014/11/01 04:00 LFPC 010400Z AUTO VRB02KT 9999 NSC 12/10 Q1019
 
LFLB - Chambery/, France
Distance de la station: ESE 348km
Mise à jour: 01/11/2014 05:00
partiellement nuageux
partiellement nuageux
 Wind from SE
Vent: SE 4 km/h
Température: 4°C
Point de Rosée: 4°C
Humidité: 100%
Baromètre: 1024 hPa
Nuages: partiellement nuageux
Visibilité: 10 km
2014/11/01 04:00 LFLB 010400Z AUTO 14002KT 9999 NSC 04/04 Q1024
LFOK - Chalons/, France
Distance de la station: NE 287km
Mise à jour: 01/11/2014 05:00
Orage
Orage
 Wind from SSE
Vent: SSE 13 km/h
Température: 10°C
Wind Chill: 8°C
Point de Rosée: 8°C
Humidité: 88%
Baromètre: 1020 hPa
Nuages: Orage
Visibilité: 10 km
2014/11/01 04:00 LFOK 010400Z AUTO 16007KT 9999 ///CB 10/08 Q1020
 
LFOC - Chateaudun/, France
Distance de la station: N 137km
Mise à jour: 01/11/2014 05:00
Brouillard ou brume, partiellement nuageux
Brouillard ou brume, partiellement nuageux
 Wind from calm
Vent: Vent calme
Température: 5°C
Point de Rosée: 5°C
Humidité: 100%
Baromètre: 1019 hPa
Récapitulatifs: Brouillard ou brume
Nuages: partiellement nuageux
Visibilité: 0 km
2014/11/01 04:00 LFOC 010400Z AUTO 00000KT 0350 R28/P2000 FG NSC 05/05 Q1019
LFLX - Chateauroux/, France
Distance de la station: NE 4km
Mise à jour: 01/11/2014 05:00
partiellement nuageux
partiellement nuageux
 Wind from variable
Vent: variable 6 km/h
Température: 7°C
Point de Rosée: 7°C
Humidité: 100%
Baromètre: 1020 hPa
Nuages: partiellement nuageux
Visibilité: 10 km
2014/11/01 04:00 LFLX 010400Z AUTO VRB03KT 9999 NSC 07/07 Q1020
 
LFPG - Charles De Gaulle/, France
Distance de la station: NNE 252km
Mise à jour: 01/11/2014 05:00
clair
clair
 Wind from SSE
Vent: SSE 11 km/h
Température: 12°C
Point de Rosée: 10°C
Humidité: 88%
Baromètre: 1019 hPa
Récapitulatifs: clair
Visibilité: supérieure à 10 km
2014/11/01 04:00 LFPG 010400Z 16006KT CAVOK 12/10 Q1019 NOSIG
LFRC - Cherbourg/, France
Distance de la station: NO 390km
Mise à jour: 01/11/2014 05:00
Couvert
Couvert
 Wind from SSO
Vent: SSO 19 km/h
Température: 15°C
Point de Rosée: 14°C
Humidité: 94%
Baromètre: 1016 hPa
Nuages: Couvert
Visibilité: 10 km
Nuages details: Quelques Nuages 640 m
Couvert 1036 m
2014/11/01 04:00 LFRC 010400Z AUTO 21010KT 9999 FEW021 OVC034 15/14 Q1016
 
LFLC - Clermont/, France
Distance de la station: SE 163km
Mise à jour: 01/11/2014 05:00
clair
clair
 Wind from SSE
Vent: SSE 17 km/h
Température: 11°C
Point de Rosée: 6°C
Humidité: 72%
Baromètre: 1021 hPa
Récapitulatifs: clair
Visibilité: supérieure à 10 km
2014/11/01 04:00 LFLC 010400Z 16009KT 090V200 CAVOK 11/06 Q1021 NOSIG
LFBG - Cognac/, France
Distance de la station: SO 200km
Mise à jour: 01/11/2014 05:00
partiellement nuageux
partiellement nuageux
 Wind from SE
Vent: SE 19 km/h
Température: 13°C
Point de Rosée: 11°C
Humidité: 88%
Baromètre: 1019 hPa
Nuages: partiellement nuageux
Visibilité: 10 km
2014/11/01 04:00 LFBG 010400Z AUTO 14010KT 9999 NSC 13/11 Q1019
 
LFBY - Dax/, France
Distance de la station: SSO 411km
Mise à jour: 01/11/2014 05:00

 Wind from variable
Vent: variable 4 km/h
Température: 11°C
Point de Rosée: 10°C
Humidité: 94%
Baromètre: 1019 hPa
Visibilité: 9 km
2014/11/01 04:00 LFBY 010400Z AUTO VRB02KT 9000 // ////// 11/10 Q1019
LFSD - Dijon/, France
Distance de la station: ENE 261km
Mise à jour: 01/11/2014 05:00
Brouillard ou brume
Brouillard ou brume
 Wind from calm
Vent: Vent calme
Température: 8°C
Point de Rosée: 8°C
Humidité: 100%
Baromètre: 1023 hPa
Récapitulatifs: Brouillard ou brume
Visibilité: 0 km
2014/11/01 04:00 LFSD 010400Z AUTO 00000KT 0100 R35/0400N FG VV/// 08/08 Q1023
 
LFRD - Dinard/, France
Distance de la station: NO 342km
Mise à jour: 01/11/2014 05:00
partiellement nuageux
partiellement nuageux
 Wind from S
Vent: S 9 km/h
Température: 15°C
Point de Rosée: 14°C
Humidité: 94%
Baromètre: 1017 hPa
Nuages: partiellement nuageux
Visibilité: 10 km
2014/11/01 04:00 LFRD 010400Z AUTO 19005KT 9999 NSC 15/14 Q1017
LFGJ - Dole/, France
Distance de la station: E 286km
Mise à jour: 01/11/2014 05:00
Brouillard ou brume
Brouillard ou brume
 Wind from E
Vent: E 6 km/h
Température: 5°C
Point de Rosée: 5°C
Humidité: 100%
Baromètre: 1023 hPa
Récapitulatifs: Brouillard ou brume
Visibilité: 0 km
2014/11/01 04:00 LFGJ 010400Z AUTO 08003KT 0250 R05/0800U FG VV/// 05/05 Q1023
 
LFOE - Evreux/, France
Distance de la station: N 247km
Mise à jour: 01/11/2014 05:00
partiellement nuageux
partiellement nuageux
 Wind from S
Vent: S 6 km/h
Température: 10°C
Point de Rosée: 9°C
Humidité: 94%
Baromètre: 1018 hPa
Nuages: partiellement nuageux
Visibilité: 10 km
2014/11/01 04:00 LFOE 010400Z AUTO 17003KT 9999 NSC 10/09 Q1018
LFMT - Frejorgues/, France
Distance de la station: SSE 403km
Mise à jour: 01/11/2014 05:00
nuageux
nuageux
 Wind from NNE
Vent: NNE 11 km/h
Température: 12°C
Point de Rosée: 10°C
Humidité: 88%
Baromètre: 1023 hPa
Nuages: nuageux
Visibilité: 6 km
Nuages details: nuageux 975 m
2014/11/01 04:00 LFMT 010400Z 02006KT 6000 BKN032 12/10 Q1023 NOSIG
 
LFMI - Istres/, France
Distance de la station: SE 446km
Mise à jour: 01/11/2014 05:00
Broulliard, partiellement nuageux
Broulliard, partiellement nuageux
 Wind from NE
Vent: NE 7 km/h
Température: 10°C
Wind Chill: 9°C
Point de Rosée: 10°C
Humidité: 100%
Baromètre: 1024 hPa
Récapitulatifs: Broulliard
Nuages: partiellement nuageux
Visibilité: 3 km
Nuages details: Quelques Nuages 701 m
partiellement nuageux 5486 m
2014/11/01 04:00 LFMI 010400Z AUTO 04004KT 3200 BR FEW023 SCT180 10/10 Q1024
LFLS - Grenoble/, France
Distance de la station: ESE 323km
Mise à jour: 01/11/2014 05:00
partiellement nuageux
partiellement nuageux
 Wind from E
Vent: E 15 km/h
Température: 7°C
Wind Chill: 4°C
Point de Rosée: 5°C
Humidité: 87%
Baromètre: 1024 hPa
Nuages: partiellement nuageux
Visibilité: 10 km
2014/11/01 04:00 LFLS 010400Z AUTO 09008KT 9999 NSC 07/05 Q1024
 
LFBH - La Rochelle/, France
Distance de la station: OSO 229km
Mise à jour: 01/11/2014 05:00
partiellement nuageux
partiellement nuageux
 Wind from SSE
Vent: SSE 19 km/h
Température: 15°C
Point de Rosée: 11°C
Humidité: 77%
Baromètre: 1019 hPa
Nuages: partiellement nuageux
Visibilité: 10 km
2014/11/01 04:00 LFBH 010400Z AUTO 16010KT 9999 NSC 15/11 Q1019
LFRI - La Roche Sur Yon/, France
Distance de la station: O 233km
Mise à jour: 01/11/2014 05:00
partiellement nuageux
partiellement nuageux
 Wind from SSE
Vent: SSE 9 km/h
Température: 13°C
Point de Rosée: 10°C
Humidité: 82%
Baromètre: 1019 hPa
Nuages: partiellement nuageux
Visibilité: 10 km
2014/11/01 04:00 LFRI 010400Z AUTO 15005KT 9999 NSC 13/10 Q1019
 
LFOH - Le Havre/, France
Distance de la station: NNO 323km
Mise à jour: 01/11/2014 05:00
partiellement nuageux
partiellement nuageux
 Wind from S
Vent: S 9 km/h
Température: 16°C
Point de Rosée: 11°C
Humidité: 72%
Baromètre: 1017 hPa
Nuages: partiellement nuageux
Visibilité: 10 km
2014/11/01 04:00 LFOH 010400Z AUTO 19005KT 160V220 9999 NSC 16/11 Q1017
LFRM - Le Mans/, France
Distance de la station: NO 166km
Mise à jour: 01/11/2014 05:00
partiellement nuageux
partiellement nuageux
 Wind from calm
Vent: Vent calme
Température: 9°C
Point de Rosée: 8°C
Humidité: 94%
Baromètre: 1018 hPa
Nuages: partiellement nuageux
Visibilité: 10 km
2014/11/01 04:00 LFRM 010400Z AUTO 00000KT 9999 NSC 09/08 Q1018
 
LFRJ - Landivisiau/, France
Distance de la station: ONO 476km
Mise à jour: 01/11/2014 05:00
Couvert
Couvert
 Wind from SO
Vent: SO 11 km/h
Température: 14°C
Point de Rosée: 13°C
Humidité: 94%
Baromètre: 1017 hPa
Nuages: Couvert
Visibilité: 10 km
Nuages details: Quelques Nuages 274 m
partiellement nuageux 1250 m
Couvert 2987 m
2014/11/01 04:00 LFRJ 010400Z AUTO 23006KT 9999 FEW009 SCT041 OVC098 14/13 Q1017
LFRO - Lannion/, France
Distance de la station: ONO 441km
Mise à jour: 01/11/2014 05:00
faible pluie, Couvert
faible pluie, Couvert
 Wind from O
Vent: O 17 km/h
Température: 14°C
Point de Rosée: 13°C
Humidité: 94%
Baromètre: 1017 hPa
Récapitulatifs: faible pluie
Nuages: Couvert
Visibilité: 10 km
Nuages details: Quelques Nuages 183 m
nuageux 762 m
Couvert 2682 m
2014/11/01 04:00 LFRO 010400Z AUTO 27009KT 9999 -RA FEW006 BKN025 OVC088 14/13 Q1017
 
LFRL - Lanveoc/, France
Distance de la station: ONO 485km
Mise à jour: 01/11/2014 05:00
nuageux
nuageux
 Wind from O
Vent: O 7 km/h
Température: 14°C
Point de Rosée: 13°C
Humidité: 94%
Baromètre: 1017 hPa
Nuages: nuageux
Visibilité: 10 km
Nuages details: Quelques Nuages 640 m
partiellement nuageux 1311 m
nuageux 2316 m
2014/11/01 04:00 LFRL 010400Z AUTO 26004KT 9999 FEW021 SCT043 BKN076 14/13 Q1017
LFBL - Limoges/, France
Distance de la station: SSO 113km
Mise à jour: 01/11/2014 05:00
partiellement nuageux
partiellement nuageux
 Wind from ESE
Vent: ESE 9 km/h
Température: 12°C
Point de Rosée: 9°C
Humidité: 82%
Baromètre: 1020 hPa
Nuages: partiellement nuageux
Visibilité: 10 km
2014/11/01 04:00 LFBL 010400Z AUTO 11005KT 9999 NSC 12/09 Q1020
 
LFQQ - Lille/, France
Distance de la station: NNE 430km
Mise à jour: 01/11/2014 05:00
clair
clair
 Wind from SSE
Vent: SSE 15 km/h
Température: 11°C
Point de Rosée: 10°C
Humidité: 94%
Baromètre: 1018 hPa
Récapitulatifs: clair
Visibilité: supérieure à 10 km
2014/11/01 04:00 LFQQ 010400Z 16008KT CAVOK 11/10 Q1018 NOSIG
LFRH - Lorient/, France
Distance de la station: ONO 401km
Mise à jour: 01/11/2014 05:00
Couvert
Couvert
 Wind from O
Vent: O 13 km/h
Température: 16°C
Point de Rosée: 15°C
Humidité: 94%
Baromètre: 1018 hPa
Nuages: Couvert
Visibilité: 10 km
Nuages details: Quelques Nuages 396 m
Couvert 3353 m
2014/11/01 04:00 LFRH 010400Z AUTO 27007KT 9999 FEW013 OVC110 16/15 Q1018
 
LFLY - Lyon/, France
Distance de la station: ESE 279km
Mise à jour: 01/11/2014 05:00
Broulliard, partiellement nuageux
Broulliard, partiellement nuageux
 Wind from S
Vent: S 4 km/h
Température: 6°C
Point de Rosée: 5°C
Humidité: 93%
Baromètre: 1023 hPa
Récapitulatifs: Broulliard
Nuages: partiellement nuageux
Visibilité: 4 km
2014/11/01 04:00 LFLY 010400Z AUTO 17002KT 3500 BR NSC 06/05 Q1023
LFLL - Lyon/Satolas, France
Distance de la station: ESE 287km
Mise à jour: 01/11/2014 05:00
partiellement nuageux
partiellement nuageux
 Wind from SSE
Vent: SSE 9 km/h
Température: 9°C
Wind Chill: 7°C
Point de Rosée: 7°C
Humidité: 87%
Baromètre: 1023 hPa
Nuages: partiellement nuageux
Visibilité: 6 km
2014/11/01 04:00 LFLL 010400Z 15005KT 6000 NSC 09/07 Q1023 NOSIG
 
LFSX - Luxeuil/, France
Distance de la station: ENE 366km
Mise à jour: 01/11/2014 05:00
partiellement nuageux
partiellement nuageux
 Wind from calm
Vent: Vent calme
Température: 7°C
Point de Rosée: 6°C
Humidité: 93%
Baromètre: 1023 hPa
Nuages: partiellement nuageux
Visibilité: 10 km
2014/11/01 04:00 LFSX 010400Z AUTO 00000KT 9999 // NSC 07/06 Q1023
LFJR - Marce/, France
Distance de la station: NO 134km
Mise à jour: 01/11/2014 05:00
partiellement nuageux
partiellement nuageux
 Wind from E
Vent: E 4 km/h
Température: 9°C
Point de Rosée: 8°C
Humidité: 94%
Baromètre: 1018 hPa
Nuages: partiellement nuageux
Visibilité: 10 km
2014/11/01 04:00 LFJR 010400Z AUTO 10002KT 9999 NSC 09/08 Q1018
 
LFML - Marseille/, France
Distance de la station: SE 466km
Mise à jour: 01/11/2014 05:00
partiellement nuageux
partiellement nuageux
 Wind from SE
Vent: SE 9 km/h
Température: 9°C
Wind Chill: 7°C
Point de Rosée: 8°C
Humidité: 94%
Baromètre: 1024 hPa
Nuages: partiellement nuageux
Visibilité: 6 km
2014/11/01 04:00 LFML 010400Z 14005KT 6000 NSC 09/08 Q1024 TEMPO 3000 BR
LFPM - Melun/, France
Distance de la station: NNE 213km
Mise à jour: 01/11/2014 05:00
partiellement nuageux
partiellement nuageux
 Wind from E
Vent: E 9 km/h
Température: 10°C
Wind Chill: 9°C
Point de Rosée: 9°C
Humidité: 94%
Baromètre: 1019 hPa
Nuages: partiellement nuageux
Visibilité: 10 km
2014/11/01 04:00 LFPM 010400Z AUTO 10005KT 9999 NSC 10/09 Q1019
 
LFJL - Metz-Nancy-Lorra/, France
Distance de la station: NE 416km
Mise à jour: 01/11/2014 05:00
Brouillard ou brume
Brouillard ou brume
 Wind from SE
Vent: SE 2 km/h
Température: 7°C
Point de Rosée: 7°C
Humidité: 100%
Baromètre: 1022 hPa
Récapitulatifs: Brouillard ou brume
Visibilité: 0 km
2014/11/01 04:00 LFJL 010400Z AUTO 13001KT 0150 R22/1300U R04/0600U FG VV/// 07/07 Q1022
LFBM - Mont-De-Marsan/, France
Distance de la station: SSO 365km
Mise à jour: 01/11/2014 05:00
Broulliard, partiellement nuageux
Broulliard, partiellement nuageux
 Wind from ESE
Vent: ESE 7 km/h
Température: 11°C
Point de Rosée: 10°C
Humidité: 94%
Baromètre: 1019 hPa
Récapitulatifs: Broulliard
Nuages: partiellement nuageux
Visibilité: 3 km
2014/11/01 04:00 LFBM 010400Z AUTO 11004KT 3300 BR NSC 11/10 Q1019
 
LFSO - Nancy/, France
Distance de la station: ENE 375km
Mise à jour: 01/11/2014 05:00
partiellement nuageux
partiellement nuageux
 Wind from SE
Vent: SE 6 km/h
Température: 9°C
Point de Rosée: 8°C
Humidité: 94%
Baromètre: 1022 hPa
Nuages: partiellement nuageux
Visibilité: 7 km
2014/11/01 04:00 LFSO 010400Z AUTO 13003KT 7000 NSC 09/08 Q1022
LFRS - Nantes/, France
Distance de la station: O 252km
Mise à jour: 01/11/2014 05:00
clair
clair
 Wind from SSE
Vent: SSE 6 km/h
Température: 10°C
Point de Rosée: 9°C
Humidité: 94%
Baromètre: 1018 hPa
Récapitulatifs: clair
Visibilité: supérieure à 10 km
2014/11/01 04:00 LFRS 010400Z 15003KT CAVOK 10/09 Q1018 NOSIG
 
LFTW - Nimes/, France
Distance de la station: SE 402km
Mise à jour: 01/11/2014 05:00
Broulliard, nuageux
Broulliard, nuageux
 Wind from ENE
Vent: ENE 6 km/h
Température: 11°C
Point de Rosée: 8°C
Humidité: 82%
Baromètre: 1024 hPa
Récapitulatifs: Broulliard
Nuages: nuageux
Visibilité: 1 km
Nuages details: nuageux 732 m
2014/11/01 04:00 LFTW 010400Z AUTO 06003KT 1200 R18/P2000 BR BKN024 11/08 Q1024
LFMO - Orange/, France
Distance de la station: SE 387km
Mise à jour: 01/11/2014 05:00
Brouillard ou brume
Brouillard ou brume
 Wind from calm
Vent: Vent calme
Température: 6°C
Point de Rosée: 5°C
Humidité: 93%
Baromètre: 1024 hPa
Récapitulatifs: Brouillard ou brume
Visibilité: 0 km
2014/11/01 04:00 LFMO 010400Z AUTO 00000KT 0150 R14/0400D FG VV/// 06/05 Q1024
 
LFOJ - Orleans/, France
Distance de la station: N 128km
Mise à jour: 01/11/2014 05:00
partiellement nuageux
partiellement nuageux
 Wind from S
Vent: S 11 km/h
Température: 12°C
Point de Rosée: 10°C
Humidité: 88%
Baromètre: 1019 hPa
Nuages: partiellement nuageux
Visibilité: 10 km
2014/11/01 04:00 LFOJ 010400Z AUTO 17006KT 9999 NSC 12/10 Q1019
LFPB - Paris/, France
Distance de la station: NNE 246km
Mise à jour: 01/11/2014 05:00
partiellement nuageux
partiellement nuageux
 Wind from SE
Vent: SE 4 km/h
Température: 10°C
Point de Rosée: 9°C
Humidité: 94%
Baromètre: 1019 hPa
Nuages: partiellement nuageux
Visibilité: 10 km
2014/11/01 04:00 LFPB 010400Z AUTO 13002KT 9999 NSC 10/09 Q1019
 
LFPO - Paris/Orly/, France
Distance de la station: NNE 218km
Mise à jour: 01/11/2014 05:00
Shallow fog, partiellement nuageux
Shallow fog, partiellement nuageux
 Wind from calm
Vent: Vent calme
Température: 11°C
Point de Rosée: 10°C
Humidité: 94%
Baromètre: 1019 hPa
Récapitulatifs: Shallow Fog
Nuages: partiellement nuageux
Visibilité: 10 km
2014/11/01 04:00 LFPO 010400Z 00000KT 9999 MIFG NSC 11/10 Q1019 TEMPO 3000 MIFG
LFMP - Perpignan/, France
Distance de la station: SSE 465km
Mise à jour: 01/11/2014 05:00
Couvert
Couvert
 Wind from variable
Vent: variable 4 km/h
Température: 16°C
Point de Rosée: 14°C
Humidité: 88%
Baromètre: 1023 hPa
Nuages: Couvert
Visibilité: 10 km
Nuages details: Couvert 945 m
2014/11/01 04:00 LFMP 010400Z AUTO VRB02KT 9999 OVC031 16/14 Q1023
 
LFBI - Poitiers/, France
Distance de la station: OSO 108km
Mise à jour: 01/11/2014 05:00
partiellement nuageux
partiellement nuageux
 Wind from S
Vent: S 7 km/h
Température: 11°C
Point de Rosée: 9°C
Humidité: 88%
Baromètre: 1019 hPa
Nuages: partiellement nuageux
Visibilité: 10 km
2014/11/01 04:00 LFBI 010400Z AUTO 17004KT 9999 NSC 11/09 Q1019
LFRQ - Quimper/, France
Distance de la station: ONO 458km
Mise à jour: 01/11/2014 05:00
Couvert
Couvert
 Wind from variable
Vent: variable 4 km/h
Température: 14°C
Point de Rosée: 13°C
Humidité: 94%
Baromètre: 1018 hPa
Nuages: Couvert
Visibilité: 10 km
Nuages details: Quelques Nuages 305 m
nuageux 2377 m
Couvert 3048 m
2014/11/01 04:00 LFRQ 010400Z AUTO VRB02KT 9999 FEW010 BKN078 OVC100 14/13 Q1018
 
LFRN - Rennes/, France
Distance de la station: ONO 291km
Mise à jour: 01/11/2014 05:00
Broulliard, nuageux
Broulliard, nuageux
 Wind from SE
Vent: SE 7 km/h
Température: 11°C
Point de Rosée: 11°C
Humidité: 100%
Baromètre: 1017 hPa
Récapitulatifs: Broulliard
Nuages: nuageux
Visibilité: 1 km
Nuages details: Quelques Nuages 884 m
nuageux 7010 m
2014/11/01 04:00 LFRN 010400Z AUTO 14004KT 1200 R28/P2000 BR FEW029 BKN230 11/11 Q1017
LFCR - Rodez/, France
Distance de la station: SSE 277km
Mise à jour: 01/11/2014 05:00
partiellement nuageux
partiellement nuageux
 Wind from ESE
Vent: ESE 9 km/h
Température: 9°C
Wind Chill: 7°C
Point de Rosée: 7°C
Humidité: 87%
Baromètre: 1022 hPa
Nuages: partiellement nuageux
Visibilité: 10 km
2014/11/01 04:00 LFCR 010400Z AUTO 11005KT 9999 NSC 09/07 Q1022
 
LFYR - Romorantin/, France
Distance de la station: N 56km
Mise à jour: 01/11/2014 05:00
Brouillard ou brume
Brouillard ou brume
 Wind from S
Vent: S 2 km/h
Température: 5°C
Point de Rosée: 5°C
Humidité: 100%
Baromètre: 1020 hPa
Récapitulatifs: Brouillard ou brume
Visibilité: 0 km
2014/11/01 04:00 LFYR 010400Z AUTO 17001KT 0150 FG VV/// 05/05 Q1020
LFOP - Rouen/, France
Distance de la station: N 286km
Mise à jour: 01/11/2014 05:00
partiellement nuageux
partiellement nuageux
 Wind from SE
Vent: SE 7 km/h
Température: 10°C
Wind Chill: 9°C
Point de Rosée: 9°C
Humidité: 94%
Baromètre: 1018 hPa
Nuages: partiellement nuageux
Visibilité: 10 km
2014/11/01 04:00 LFOP 010400Z AUTO 13004KT 9999 NSC 10/09 Q1018
 
LFMY - Salon/, France
Distance de la station: SE 446km
Mise à jour: 01/11/2014 05:00
Brouillard ou brume, Few clouds
Brouillard ou brume, Few clouds
 Wind from calm
Vent: Vent calme
Température: 8°C
Point de Rosée: 8°C
Humidité: 100%
Baromètre: 1024 hPa
Récapitulatifs: Brouillard ou brume
Nuages: Quelques Nuages
Visibilité: 1 km
Nuages details: Quelques Nuages 488 m
2014/11/01 04:00 LFMY 010400Z AUTO 00000KT 0500 R16/P2000 FG FEW016 08/08 Q1024
LFST - Strasbourg/, France
Distance de la station: ENE 483km
Mise à jour: 01/11/2014 05:00

 Wind from variable
Vent: variable 2 km/h
Visibilité: 0 km
2014/11/01 04:00 LFST 010400Z AUTO VRB01KT 0150 0100 R23/0500N R05/0600D FG VV/// 07/07 Q1023
 
LFRT - Saint-Brieuc/, France
Distance de la station: ONO 388km
Mise à jour: 31/10/2014 18:00
Pas à jour
partiellement nuageux
partiellement nuageux
 Wind from S
Vent: S 15 km/h
Température: 18°C
Point de Rosée: 15°C
Humidité: 83%
Baromètre: 1016 hPa
Nuages: partiellement nuageux
Visibilité: 10 km
2014/10/31 17:00 LFRT 311700Z AUTO 19008KT 140V220 9999 NSC 18/15 Q1016
LFSI - St. Dizier/, France
Distance de la station: NE 313km
Mise à jour: 01/11/2014 05:00
partiellement nuageux
partiellement nuageux
 Wind from E
Vent: E 9 km/h
Température: 10°C
Wind Chill: 9°C
Point de Rosée: 9°C
Humidité: 94%
Baromètre: 1021 hPa
Nuages: partiellement nuageux
Visibilité: 10 km
2014/11/01 04:00 LFSI 010400Z AUTO 09005KT 9999 NSC 10/09 Q1021
 
LFMH - St Etienne/, France
Distance de la station: SE 247km
Mise à jour: 01/11/2014 05:00
partiellement nuageux
partiellement nuageux
 Wind from SSE
Vent: SSE 11 km/h
Température: 9°C
Wind Chill: 7°C
Point de Rosée: 6°C
Humidité: 82%
Baromètre: 1022 hPa
Nuages: partiellement nuageux
Visibilité: 10 km
2014/11/01 04:00 LFMH 010400Z AUTO 15006KT 9999 NSC 09/06 Q1022
LFRG - St Gatien/, France
Distance de la station: NNO 305km
Mise à jour: 01/11/2014 05:00
partiellement nuageux
partiellement nuageux
 Wind from OSO
Vent: OSO 9 km/h
Température: 14°C
Point de Rosée: 11°C
Humidité: 82%
Baromètre: 1017 hPa
Nuages: partiellement nuageux
Visibilité: 10 km
2014/11/01 04:00 LFRG 010400Z AUTO 24005KT 9999 NSC 14/11 Q1017
 
LFRZ - St. Nazaire/, France
Distance de la station: ONO 297km
Mise à jour: 01/11/2014 05:00
Brouillard ou brume, nuageux
Brouillard ou brume, nuageux
 Wind from E
Vent: E 7 km/h
Température: 9°C
Wind Chill: 8°C
Point de Rosée: 9°C
Humidité: 100%
Baromètre: 1018 hPa
Récapitulatifs: Brouillard ou brume
Nuages: nuageux
Visibilité: 0 km
Nuages details: partiellement nuageux 213 m
nuageux 396 m
nuageux 610 m
2014/11/01 04:00 LFRZ 010400Z AUTO 09004KT 0150 R26/0550D FG SCT007 BKN013 BKN020 09/09 Q1018
LFLN - Saint Yan/, France
Distance de la station: ESE 184km
Mise à jour: 01/11/2014 05:00
Brouillard ou brume, Couvert
Brouillard ou brume, Couvert
 Wind from calm
Vent: Vent calme
Température: 4°C
Point de Rosée: 4°C
Humidité: 100%
Baromètre: 1022 hPa
Récapitulatifs: Brouillard ou brume
Nuages: Couvert
Visibilité: 0 km
Nuages details: Couvert 152 m
2014/11/01 04:00 LFLN 010400Z AUTO 00000KT 0150 R33/0750U FG OVC005 04/04 Q1022
 
LFBT - Tarbes/, France
Distance de la station: SSO 427km
Mise à jour: 01/11/2014 05:00
partiellement nuageux
partiellement nuageux
 Wind from S
Vent: S 13 km/h
Température: 15°C
Point de Rosée: 6°C
Humidité: 55%
Baromètre: 1020 hPa
Nuages: partiellement nuageux
Visibilité: 10 km
2014/11/01 04:00 LFBT 010400Z AUTO 17007KT 9999 NSC 15/06 Q1020
LFSL - Toul/, France
Distance de la station: NE 356km
Mise à jour: 01/11/2014 05:00
partiellement nuageux
partiellement nuageux
 Wind from SSE
Vent: SSE 7 km/h
Température: 11°C
Point de Rosée: 9°C
Humidité: 88%
Baromètre: 1021 hPa
Nuages: partiellement nuageux
Visibilité: 10 km
2014/11/01 04:00 LFSL 010400Z AUTO 15004KT 110V180 9999 NSC 11/09 Q1021
 
LFBO - Toulouse/, France
Distance de la station: S 357km
Mise à jour: 01/11/2014 05:00
partiellement nuageux
partiellement nuageux
 Wind from SE
Vent: SE 15 km/h
Température: 14°C
Point de Rosée: 12°C
Humidité: 88%
Baromètre: 1021 hPa
Nuages: partiellement nuageux
Visibilité: 10 km
2014/11/01 04:00 LFBO 010400Z AUTO 14008KT 9999 NSC 14/12 Q1021
LFOT - Tours/, France
Distance de la station: NO 100km
Mise à jour: 01/11/2014 05:00
clair
clair
 Wind from SE
Vent: SE 9 km/h
Température: 11°C
Point de Rosée: 10°C
Humidité: 94%
Baromètre: 1019 hPa
Récapitulatifs: clair
Visibilité: supérieure à 10 km
2014/11/01 04:00 LFOT 010400Z 13005KT CAVOK 11/10 Q1019 NOSIG
 
LFPN - Toussus Le Noble/, France
Distance de la station: N 217km
Mise à jour: 01/11/2014 05:00
partiellement nuageux
partiellement nuageux
 Wind from variable
Vent: variable 4 km/h
Température: 10°C
Point de Rosée: 8°C
Humidité: 88%
Baromètre: 1019 hPa
Nuages: partiellement nuageux
Visibilité: 10 km
2014/11/01 04:00 LFPN 010400Z AUTO VRB02KT 9999 NSC 10/08 Q1019
LFPV - Villacoublay/, France
Distance de la station: N 220km
Mise à jour: 01/11/2014 05:00
partiellement nuageux
partiellement nuageux
 Wind from S
Vent: S 6 km/h
Température: 11°C
Point de Rosée: 9°C
Humidité: 88%
Baromètre: 1019 hPa
Nuages: partiellement nuageux
Visibilité: 10 km
2014/11/01 04:00 LFPV 010400Z AUTO 19003KT 9999 NSC 11/09 Q1019